M I D A S
Marine Information and Data Acquisition System
Tripno 728 of the Zeeleeuw from 2004-06-03 06:30:24 to 2004-06-03 12:07:08
Back to CruiseResearch ActivitiesStationsMapUnderway DataData graphs

EquipmentUnitsComment
TimeDGPSUTC
LatitudeDGPSDM.mWGS84
LongitudeDGPSDM.mWGS84
HeadingGyrodeg 
SOGDGPSknotsSpeed over ground
COGDGPSdegCourse over ground
DepthEcho soundermeters200 kHz
Missing or incorrect values are displayed as -999
Navigation data collected by the RV Zeeleeuw from 2004-06-03 06:30:24 to 2004-06-03 12:07:08
                                                                                    Next 1000 lines
Time Latitude Longitude Heading SOG COG Depth
2004-06-03 06:30:34 51°13.609 2°56.049 117.4 3.9 294 -999
2004-06-03 06:30:40 51°13.612 2°56.039 117.6 4 294 -999
2004-06-03 06:30:45 51°13.614 2°56.03 117.8 4.4 294 -999
2004-06-03 06:30:50 51°13.617 2°56.021 117.8 4.6 293 -999
2004-06-03 06:30:54 51°13.619 2°56.013 117.5 4.8 293 -999
2004-06-03 06:31:00 51°13.621 2°56.001 117.1 4.8 293 -999
2004-06-03 06:31:04 51°13.623 2°55.993 117.1 4.9 293 -999
2004-06-03 06:31:09 51°13.626 2°55.983 117.5 5 293 -999
2004-06-03 06:31:14 51°13.629 2°55.973 117.9 5.1 293 -999
2004-06-03 06:31:20 51°13.632 2°55.96 118.6 5.2 293 -999
2004-06-03 06:31:24 51°13.635 2°55.951 119.5 5.3 294 -999
2004-06-03 06:31:29 51°13.638 2°55.941 120 5.3 295 -999
2004-06-03 06:31:34 51°13.641 2°55.93 120.3 5.3 295 -999
2004-06-03 06:31:40 51°13.645 2°55.917 120.6 5.3 296 -999
2004-06-03 06:31:44 51°13.648 2°55.909 120.8 5.3 296 -999
2004-06-03 06:31:50 51°13.652 2°55.896 120.9 5.3 297 -999
2004-06-03 06:31:54 51°13.655 2°55.888 120.9 5.3 297 -999
2004-06-03 06:32:00 51°13.659 2°55.875 120.9 5.3 297 -999
2004-06-03 06:32:04 51°13.661 2°55.867 120.4 5.3 296 -999
2004-06-03 06:32:09 51°13.664 2°55.856 119.4 5.3 296 -999
2004-06-03 06:32:14 51°13.667 2°55.845 118.4 5.3 294 -999
2004-06-03 06:32:19 51°13.67 2°55.834 116.5 5.3 293 -999
2004-06-03 06:32:25 51°13.673 2°55.821 114.8 5.3 290 -999
2004-06-03 06:32:30 51°13.675 2°55.81 113 5.3 289 -999
2004-06-03 06:32:34 51°13.677 2°55.801 111.5 5.2 288 -999
2004-06-03 06:32:40 51°13.679 2°55.789 110.6 5.1 288 -999
2004-06-03 06:32:44 51°13.681 2°55.781 109.6 4.7 286 -999
2004-06-03 06:32:49 51°13.683 2°55.772 109.3 4.3 287 -999
2004-06-03 06:32:54 51°13.684 2°55.764 108.8 3.7 284 11
2004-06-03 06:32:58 51°13.685 2°55.759 107.4 2.9 288 11.3
2004-06-03 06:33:04 51°13.686 2°55.753 105.8 2.3 285 11.6
2004-06-03 06:33:09 51°13.687 2°55.75 103.9 1.4 293 11.6
2004-06-03 06:33:14 51°13.687 2°55.749 99.4 0.7 299 11.7
2004-06-03 06:33:19 51°13.688 2°55.75 93.9 0.5 21 11.7
2004-06-03 06:33:24 51°13.689 2°55.752 87.3 1 58 11.9
2004-06-03 06:33:29 51°13.69 2°55.754 79.7 1.4 55 12.1
2004-06-03 06:33:34 51°13.692 2°55.758 71.9 1.9 55 12.3
2004-06-03 06:33:39 51°13.694 2°55.762 64.2 2.4 47 12.4
2004-06-03 06:33:44 51°13.697 2°55.766 58 2.5 44 12.8
2004-06-03 06:33:49 51°13.699 2°55.769 50 2.4 38 13
2004-06-03 06:33:54 51°13.702 2°55.771 46.6 2 38 11.7
2004-06-03 06:33:59 51°13.703 2°55.773 44.2 1.2 36 11.8
2004-06-03 06:34:04 51°13.704 2°55.774 41.3 1 34 11.7
2004-06-03 06:34:09 51°13.704 2°55.774 38.9 0.1 355 11.7
2004-06-03 06:34:13 51°13.703 2°55.773 37.8 0.3 214 11.7
2004-06-03 06:34:19 51°13.702 2°55.772 37.4 0.7 217 11.8
2004-06-03 06:34:24 51°13.7 2°55.77 37.3 1.2 217 11.7
2004-06-03 06:34:29 51°13.699 2°55.768 37.4 1.6 219 -999
2004-06-03 06:34:34 51°13.696 2°55.766 37.4 1.9 217 -999
2004-06-03 06:34:40 51°13.694 2°55.762 37.4 2.2 217 -999
2004-06-03 06:34:45 51°13.691 2°55.759 37.4 2.4 217 -999
2004-06-03 06:34:49 51°13.689 2°55.757 37.1 2.5 217 -999
2004-06-03 06:34:54 51°13.686 2°55.753 36.9 2.4 217 -999
2004-06-03 06:35:00 51°13.683 2°55.75 36.7 2.3 217 -999
2004-06-03 06:35:05 51°13.682 2°55.748 36.4 0.9 223 -999
2004-06-03 06:35:10 51°13.683 2°55.748 33.7 0.3 308 -999
2004-06-03 06:35:14 51°13.684 2°55.748 25.7 1.1 354 -999
2004-06-03 06:35:20 51°13.688 2°55.748 18.9 2.2 1 -999
2004-06-03 06:35:25 51°13.693 2°55.747 7.4 3.2 352 -999
2004-06-03 06:35:30 51°13.698 2°55.745   3.9 350 -999
2004-06-03 06:35:34 51°13.703 2°55.742 350.6 4.6 341 -999
2004-06-03 06:35:39 51°13.709 2°55.738 343.1 4.7 336 10.9
2004-06-03 06:35:44 51°13.715 2°55.733 338.9 4.5 331 9.5
2004-06-03 06:35:48 51°13.719 2°55.729 336.2 4.5 331 9.3
2004-06-03 06:35:54 51°13.725 2°55.723 333.8 4.7 329 9
2004-06-03 06:35:59 51°13.732 2°55.717 333.1 5 329 8.2
2004-06-03 06:36:04 51°13.738 2°55.71 333.1 5.7 328 8.3
2004-06-03 06:36:09 51°13.745 2°55.704 333.3 6 329 8.5
2004-06-03 06:36:12 51°13.75 2°55.699 333.8 6.3 330 8
2004-06-03 06:36:18 51°13.759 2°55.691 334.8 6.6 332 7.8
2004-06-03 06:36:24 51°13.77 2°55.683 336.1 6.7 332 8
2004-06-03 06:36:29 51°13.778 2°55.676 337.5 7.1 334 8.1
2004-06-03 06:36:34 51°13.788 2°55.668 338.5 7.3 334 8.1
2004-06-03 06:36:38 51°13.795 2°55.663 339.5 7.5 334 8.3
2004-06-03 06:36:44 51°13.807 2°55.655 340.4 7.5 335 8.2
2004-06-03 06:36:49 51°13.817 2°55.648 341.5 7.7 337 8
2004-06-03 06:36:54 51°13.827 2°55.642 343 7.8 338 8.2
2004-06-03 06:36:58 51°13.835 2°55.637 344.5 8 339 8.1
2004-06-03 06:37:04 51°13.848 2°55.629 345 8 339 8
2004-06-03 06:37:08 51°13.856 2°55.624 344.9 8.1 339 7.8
2004-06-03 06:37:14 51°13.869 2°55.616 344.6 8.1 338 8.1
2004-06-03 06:37:19 51°13.879 2°55.609 344.5 8.2 339 8.1
2004-06-03 06:37:24 51°13.89 2°55.602 344.6 8.2 338 8.2
2004-06-03 06:37:28 51°13.898 2°55.596 343.5 8.3 337 8.2
2004-06-03 06:37:34 51°13.911 2°55.588 342.6 8.3 337 8
2004-06-03 06:37:39 51°13.922 2°55.581 342.5 8.4 337 8.5
2004-06-03 06:37:44 51°13.933 2°55.574 343 8.4 338 8.4
2004-06-03 06:37:49 51°13.944 2°55.567 343.9 8.5 338 8.9
2004-06-03 06:37:54 51°13.955 2°55.56 344 8.6 338 9
2004-06-03 06:37:58 51°13.964 2°55.554 344.1 8.6 339 9
2004-06-03 06:38:04 51°13.977 2°55.546 345.2 8.6 339 9.2
2004-06-03 06:38:09 51°13.988 2°55.539 345.7 8.6 339 9.5
2004-06-03 06:38:14 51°13.999 2°55.532 345.4 8.6 339 9.9
2004-06-03 06:38:19 51°14.011 2°55.525 344.9 8.7 339 9.9
2004-06-03 06:38:24 51°14.022 2°55.518 344.4 8.7 338 9.7
2004-06-03 06:38:29 51°14.033 2°55.51 343.4 8.7 337 9.5
2004-06-03 06:38:34 51°14.044 2°55.502 342.2 8.7 335 9.7
2004-06-03 06:38:37 51°14.05 2°55.497 340.6 8.7 334 9.7
2004-06-03 06:38:44 51°14.065 2°55.485 339.5 8.7 333 9.9
2004-06-03 06:38:49 51°14.076 2°55.476 339 8.8 333 9.7
2004-06-03 06:38:54 51°14.087 2°55.467 338.8 9 333 10
2004-06-03 06:38:57 51°14.094 2°55.461 337.7 9.2 331 9.9
2004-06-03 06:39:04 51°14.11 2°55.447 336.6 9.6 330 9.8
2004-06-03 06:39:08 51°14.119 2°55.438 336 9.7 329 9.8
2004-06-03 06:39:14 51°14.133 2°55.424 335.1 10 329 -999
2004-06-03 06:39:20 51°14.148 2°55.41 334.4 10 328 -999
2004-06-03 06:39:25 51°14.16 2°55.398 333.8 10.3 327 -999
2004-06-03 06:39:29 51°14.169 2°55.388 333.1 10.3 327 -999
2004-06-03 06:39:34 51°14.181 2°55.375 332.3 10.4 326 -999
2004-06-03 06:39:40 51°14.195 2°55.358 330.2 10.5 324 10.3
2004-06-03 06:39:44 51°14.204 2°55.347 328.4 10.5 321 -999
2004-06-03 06:39:49 51°14.215 2°55.332 326.9 10.5 320 -999
2004-06-03 06:39:54 51°14.226 2°55.316 324.9 10.5 318 10
2004-06-03 06:39:58 51°14.234 2°55.302 321.9 10.6 315 9.1
2004-06-03 06:40:04 51°14.246 2°55.282 320 10.6 314 9.7
2004-06-03 06:40:09 51°14.257 2°55.265 319.4 10.7 314 9.5
2004-06-03 06:40:14 51°14.267 2°55.247 318.8 10.7 312 9.5
2004-06-03 06:40:19 51°14.276 2°55.229 317.3 10.8 311 9.6
2004-06-03 06:40:24 51°14.286 2°55.211 316.6 10.9 311 9.6
2004-06-03 06:40:29 51°14.296 2°55.192 316.4 11.1 311 9.5
2004-06-03 06:40:34 51°14.307 2°55.173 316.5 11.3 311 9.5
2004-06-03 06:40:37 51°14.313 2°55.162 316.8 11.4 311 9.6
2004-06-03 06:40:44 51°14.328 2°55.135 317.2 11.6 312 9.3
2004-06-03 06:40:49 51°14.339 2°55.116 317.9 11.8 313 9.3
2004-06-03 06:40:54 51°14.351 2°55.098 318.6 11.8 314 8.8
2004-06-03 06:40:58 51°14.36 2°55.082 319.3 11.9 314 8.9
2004-06-03 06:41:04 51°14.373 2°55.059 319.7 12 314 9.1
2004-06-03 06:41:09 51°14.385 2°55.04 320.1 12.1 314 9.2
2004-06-03 06:41:14 51°14.397 2°55.021 320.2 12.2 313 9.2
2004-06-03 06:41:19 51°14.408 2°55 319.4 12.2 310 9.2
2004-06-03 06:41:24 51°14.418 2°54.978 316.8 12.2 305 9.3
2004-06-03 06:41:29 51°14.427 2°54.955 312.4 12.3 301 9.2
2004-06-03 06:41:32 51°14.431 2°54.94 307.8 12.4 298 9.2
2004-06-03 06:41:38 51°14.44 2°54.911 304.7 12.4 296 9.2
2004-06-03 06:41:44 51°14.449 2°54.88 302.8 12.6 293 8.9
2004-06-03 06:41:49 51°14.456 2°54.855 301.8 12.6 292 9
2004-06-03 06:41:54 51°14.461 2°54.828 299.7 12.6 288 8.8
2004-06-03 06:41:58 51°14.464 2°54.806 295.9 12.7 285 9
2004-06-03 06:42:04 51°14.469 2°54.773 292.6 12.8 280 9.2
2004-06-03 06:42:08 51°14.47 2°54.751 289.4 12.9 278 9
2004-06-03 06:42:14 51°14.473 2°54.717 286.6 12.9 276 9.2
2004-06-03 06:42:18 51°14.473 2°54.695 283.1 12.5 270 9.3
2004-06-03 06:42:24 51°14.472 2°54.662 278.7 12.3 269 8.8
2004-06-03 06:42:29 51°14.47 2°54.635 274.5 12.1 264 9.3
2004-06-03 06:42:33 51°14.468 2°54.614 271.1 11.9 263 9.2
2004-06-03 06:42:39 51°14.465 2°54.585 268.8 11.2 260 9
2004-06-03 06:42:44 51°14.462 2°54.562 266.6 10.7 259 9.2
2004-06-03 06:42:49 51°14.458 2°54.541 264.9 10 256 9
2004-06-03 06:42:54 51°14.455 2°54.521 262.3 9.5 254 8.9
2004-06-03 06:42:57 51°14.452 2°54.51 260 9 252 9.1
2004-06-03 06:43:04 51°14.447 2°54.485 258.4 8.4 250 9
2004-06-03 06:43:09 51°14.443 2°54.468 256.4 7.9 248 9.3
2004-06-03 06:43:14 51°14.439 2°54.453 254.9 7.6 248 9.1
2004-06-03 06:43:17 51°14.436 2°54.444 253.5 7.3 246 9
2004-06-03 06:43:24 51°14.431 2°54.425 252.3 6.8 244 9.1
2004-06-03 06:43:29 51°14.427 2°54.412 251.7 6.6 245 8.6
2004-06-03 06:43:34 51°14.423 2°54.399 251.3 6.4 245 8.5
2004-06-03 06:43:38 51°14.419 2°54.389 251.3 6.2 243 8.2
2004-06-03 06:43:44 51°14.415 2°54.376 251.4 5.9 243 8.2
2004-06-03 06:43:48 51°14.413 2°54.367 251.9 5.8 244 8.2
2004-06-03 06:43:54 51°14.409 2°54.353 252.9 5.6 245 8.2
2004-06-03 06:43:59 51°14.406 2°54.342 254 5.4 246 8.1
2004-06-03 06:44:04 51°14.403 2°54.332 255.4 5.2 247 8.1
2004-06-03 06:44:09 51°14.4 2°54.322 257.2 5 248 8.2
2004-06-03 06:44:14 51°14.398 2°54.312 259.4 4.9 248 8.2
2004-06-03 06:44:19 51°14.395 2°54.303 261 4.7 249 8
2004-06-03 06:44:24 51°14.393 2°54.293 262.4 4.6 249 8
2004-06-03 06:44:29 51°14.391 2°54.284 263.4 4.4 250 8
2004-06-03 06:44:34 51°14.389 2°54.275 264.2 4.3 251 8
2004-06-03 06:44:37 51°14.388 2°54.27 265.1 4.2 251 8.1
2004-06-03 06:44:44 51°14.385 2°54.258 266.2 4.1 252 8
2004-06-03 06:44:49 51°14.384 2°54.249 267 4 251 8
2004-06-03 06:44:54 51°14.382 2°54.241 267.5 4 251 8.1
2004-06-03 06:44:57 51°14.381 2°54.236 268.1 3.9 252 8
2004-06-03 06:45:04 51°14.378 2°54.225 268.5 3.7 250 8
2004-06-03 06:45:09 51°14.377 2°54.217 268.8 3.7 252 8
2004-06-03 06:45:14 51°14.375 2°54.21 269.2 3.7 252 7.9
2004-06-03 06:45:19 51°14.373 2°54.202 269.2 3.6 252 8
2004-06-03 06:45:24 51°14.372 2°54.195 269.3 3.6 251 8
2004-06-03 06:45:29 51°14.37 2°54.187 269.4 3.5 250 8
2004-06-03 06:45:33 51°14.369 2°54.182 269.7 3.4 250 8
2004-06-03 06:45:36 51°14.368 2°54.177 269.9 3.4 250 8
2004-06-03 06:45:44 51°14.365 2°54.166 269.9 3.3 251 8
2004-06-03 06:45:49 51°14.364 2°54.159 270.3 3.3 250 8.1
2004-06-03 06:45:54 51°14.363 2°54.152 270.6 3.3 251 8.1
2004-06-03 06:45:59 51°14.361 2°54.146 271.1 3.2 251 8
2004-06-03 06:46:04 51°14.359 2°54.139 271.6 3.2 250 8.1
2004-06-03 06:46:09 51°14.358 2°54.133 272.1 3.1 250 8
2004-06-03 06:46:14 51°14.356 2°54.126 272.5 3.1 250 8
2004-06-03 06:46:18 51°14.355 2°54.121 273.2 3 250 8
2004-06-03 06:46:24 51°14.353 2°54.114 273.8 3 250 8.1
2004-06-03 06:46:29 51°14.352 2°54.108 274.4 2.9 251 8
2004-06-03 06:46:34 51°14.351 2°54.102 275.1 2.9 250 8.1
2004-06-03 06:46:38 51°14.35 2°54.097 275.7 2.8 252 8.1
2004-06-03 06:46:44 51°14.348 2°54.09 276.2 2.8 251 8
2004-06-03 06:46:49 51°14.347 2°54.085 276.5 2.7 251 8
2004-06-03 06:46:54 51°14.346 2°54.079 276.7 2.7 250 8
2004-06-03 06:46:57 51°14.345 2°54.076 276.9 2.7 250 8.1
2004-06-03 06:47:04 51°14.343 2°54.068 277.2 2.9 250 8.2
2004-06-03 06:47:09 51°14.342 2°54.061 277.2 3.1 254 8.2
2004-06-03 06:47:13 51°14.341 2°54.055 276.4 3.7 255 8.1
2004-06-03 06:47:19 51°14.339 2°54.043 273.8 4.7 255 8.1
2004-06-03 06:47:24 51°14.336 2°54.031 269.4 5.9 252 8.1
2004-06-03 06:47:29 51°14.333 2°54.017 263.8 6.7 249 8
2004-06-03 06:47:32 51°14.331 2°54.008 260.1 7.5 248 8
2004-06-03 06:47:38 51°14.325 2°53.988 256.2 8.2 246 8
2004-06-03 06:47:44 51°14.319 2°53.966 254.4 9.5 245 8
2004-06-03 06:47:49 51°14.313 2°53.946 252.3 10.1 244 8
2004-06-03 06:47:54 51°14.305 2°53.925 249.8 10.6 241 8
2004-06-03 06:47:57 51°14.301 2°53.912 246.4 11.2 239 7.9
2004-06-03 06:48:04 51°14.289 2°53.882 244.2 11.5 238 7.9
2004-06-03 06:48:09 51°14.28 2°53.859 243.8 11.8 237 7.9
2004-06-03 06:48:13 51°14.272 2°53.842 243.1 12 238 7.9
2004-06-03 06:48:18 51°14.263 2°53.819 243 12.3 236 7.9
2004-06-03 06:48:24 51°14.252 2°53.792 242.4 12.1 239 7.9
2004-06-03 06:48:29 51°14.243 2°53.77 243 12.2 235 7.9
2004-06-03 06:48:34 51°14.234 2°53.746 243.1 12.3 240 7.8
2004-06-03 06:48:38 51°14.226 2°53.728 242.5 12.6 236 7.9
2004-06-03 06:48:44 51°14.215 2°53.699 242.8 12.7 238 7.9
2004-06-03 06:48:49 51°14.205 2°53.676 243 13 236 8
2004-06-03 06:48:54 51°14.195 2°53.65 242.1 13.2 238 8
2004-06-03 06:48:59 51°14.185 2°53.626 242.5 13.5 236 5.8
2004-06-03 06:49:04 51°14.174 2°53.601 241.6 13.7 237 7.9
2004-06-03 06:49:09 51°14.164 2°53.575 242.3 13.8 236 7.8
2004-06-03 06:49:12 51°14.157 2°53.56 241.8 13.8 237 7.9
2004-06-03 06:49:19 51°14.142 2°53.524 242.1 14 235 7.8
2004-06-03 06:49:24 51°14.132 2°53.498 241.1 14 238 7.8
2004-06-03 06:49:29 51°14.121 2°53.472 242.1 14.2 236 7.9
2004-06-03 06:49:34 51°14.11 2°53.446 242.4 14.2 238 7.9
2004-06-03 06:49:39 51°14.099 2°53.42 242.4 14.2 237 7.9
2004-06-03 06:49:44 51°14.089 2°53.392 242.8 14.3 238 7.9
2004-06-03 06:49:49 51°14.078 2°53.366 243.5 14.4 237 7.9
2004-06-03 06:49:54 51°14.068 2°53.339 243 14.4 239 8
2004-06-03 06:49:58 51°14.06 2°53.317 244.7 14.3 237 8
2004-06-03 06:50:04 51°14.047 2°53.284 243.6 14.4 239 8
2004-06-03 06:50:08 51°14.039 2°53.262 244.5 14.4 236 8
2004-06-03 06:50:14 51°14.026 2°53.23 243.3 14.5 238 8
2004-06-03 06:50:19 51°14.014 2°53.204 242.3 14.5 236 8
2004-06-03 06:50:24 51°14.003 2°53.177 241.7 14.6 235 8.1
2004-06-03 06:50:29 51°13.991 2°53.151 240.7 14.5 235 8.1
2004-06-03 06:50:34 51°13.979 2°53.125 240.2 14.5 233 8.1
2004-06-03 06:50:38 51°13.97 2°53.105 238 14.6 234 8.2
2004-06-03 06:50:44 51°13.956 2°53.076 239 13.5 233 8.1
2004-06-03 06:50:49 51°13.945 2°53.053 237.6 13.2 233 8.1
2004-06-03 06:50:54 51°13.934 2°53.03 236.9 13.2 232 8.1
2004-06-03 06:50:58 51°13.925 2°53.013 236.7 12.4 231 8.3
2004-06-03 06:51:04 51°13.912 2°52.99 235.5 11.4 229 8.5
2004-06-03 06:51:09 51°13.902 2°52.972 233.6 10.7 228 8.6
2004-06-03 06:51:14 51°13.893 2°52.957 231.9 10.1 226 8.7
2004-06-03 06:51:19 51°13.883 2°52.942 228.1 9.5 224 8.7
2004-06-03 06:51:24 51°13.875 2°52.929 227.5 8.4 225 8.7
2004-06-03 06:51:29 51°13.868 2°52.916 230.4 7.9 229 8.7
2004-06-03 06:51:34 51°13.862 2°52.903 234.7 7.5 231 8.8
2004-06-03 06:51:39 51°13.856 2°52.891 238.8 7.1 234 8.8
2004-06-03 06:51:44 51°13.851 2°52.879 242.7 6.7 236 8.8
2004-06-03 06:51:48 51°13.848 2°52.87 246.9 5.8 240 8.7
2004-06-03 06:51:54 51°13.844 2°52.857 250.6 5.5 241 8.8
2004-06-03 06:51:59 51°13.841 2°52.847 253.7 5.2 244 8.7
2004-06-03 06:52:04 51°13.838 2°52.838 257.4 4.3 245 8.8
2004-06-03 06:52:08 51°13.837 2°52.832 260.7 3.7 245 8.8
2004-06-03 06:52:14 51°13.834 2°52.825 263.9 3.1 242 8.8
2004-06-03 06:52:18 51°13.833 2°52.822 268.7 2.4 239 8.9
2004-06-03 06:52:24 51°13.831 2°52.819 273.5 1.6 211 8.8
2004-06-03 06:52:28 51°13.829 2°52.818 275.7 1.4 192 8.8
2004-06-03 06:52:34 51°13.827 2°52.819 276.1 1.3 174 8.8
2004-06-03 06:52:38 51°13.826 2°52.819 275 1.3 168 8.8
2004-06-03 06:52:44 51°13.824 2°52.82 273.2 1.1 182 -999
2004-06-03 06:52:49 51°13.822 2°52.819 270.3 1.2 203 -999
2004-06-03 06:52:54 51°13.821 2°52.816 268.5 1.6 226 -999
2004-06-03 06:53:00 51°13.818 2°52.81 267.6 2.2 234 -999
2004-06-03 06:53:04 51°13.817 2°52.806 267.2 2.6 242 -999
2004-06-03 06:53:10 51°13.815 2°52.8 267 2.6 243 -999
2004-06-03 06:53:14 51°13.813 2°52.796 266.8 2.7 236 8.8
2004-06-03 06:53:20 51°13.811 2°52.79 266.4 2.6 240 -999
2004-06-03 06:53:24 51°13.809 2°52.786 266 2.6 238 -999
2004-06-03 06:53:29 51°13.808 2°52.781 265.9 2.5 239 8.8
2004-06-03 06:53:34 51°13.806 2°52.776 265.5 2.7 236 8.8
2004-06-03 06:53:39 51°13.804 2°52.771 265.5 2.6 241 8.8
2004-06-03 06:53:44 51°13.802 2°52.766 265.7 2.6 238 8.8
2004-06-03 06:53:48 51°13.8 2°52.762 266.1 2.6 239 8.7
2004-06-03 06:53:54 51°13.798 2°52.757 266.6 2.6 239 8.7
2004-06-03 06:53:58 51°13.797 2°52.753 266.9 2.6 238 8.7
2004-06-03 06:54:04 51°13.794 2°52.747 267.2 2.6 239 8.8
2004-06-03 06:54:09 51°13.793 2°52.742 267.9 2.5 240 8.8
2004-06-03 06:54:14 51°13.791 2°52.737 268.3 2.5 238 8.7
2004-06-03 06:54:19 51°13.789 2°52.733 268.7 2.5 238 8.8
2004-06-03 06:54:24 51°13.787 2°52.729 269.2 2.4 237 8.8
2004-06-03 06:54:29 51°13.785 2°52.726 269.9 1.8 223 8.9
2004-06-03 06:54:34 51°13.784 2°52.725 270.1 1.4 213 8.9
2004-06-03 06:54:39 51°13.782 2°52.725 271.2 1.2 188 8.9
2004-06-03 06:54:44 51°13.78 2°52.725 271.4 1.2 179 8.8
2004-06-03 06:54:49 51°13.779 2°52.725 271.4 1.2 182 8.8
2004-06-03 06:54:54 51°13.777 2°52.724 270.8 1.2 186 8.8
2004-06-03 06:55:00 51°13.775 2°52.724 269.6 1.2 185 -999
2004-06-03 06:55:05 51°13.773 2°52.724 268.3 1.2 186 -999
2004-06-03 06:55:10 51°13.772 2°52.724 267.1 1.2 188 -999
2004-06-03 06:55:14 51°13.77 2°52.723 265.9 1.2 189 8.7
2004-06-03 06:55:17 51°13.769 2°52.723 265.1 1.2 189 -999
2004-06-03 06:55:24 51°13.767 2°52.722 264.1 1.2 195 8.7
2004-06-03 06:55:29 51°13.766 2°52.721 262.9 1.2 199 8.8
2004-06-03 06:55:32 51°13.765 2°52.721 261.4 1.2 197 8.7
2004-06-03 06:55:38 51°13.763 2°52.72 260.2 1.2 198 8.7
2004-06-03 06:55:44 51°13.761 2°52.719 259.3 1.2 199 8.7
2004-06-03 06:55:49 51°13.759 2°52.718 258.3 1.2 198 8.7
2004-06-03 06:55:54 51°13.758 2°52.717 257.4 1.2 202 8.7
2004-06-03 06:55:58 51°13.757 2°52.716 256.7 1.2 201 8.8
2004-06-03 06:56:04 51°13.755 2°52.715 255.8 1.2 204 8.7
2004-06-03 06:56:09 51°13.753 2°52.714 255 1.2 202 8.8
2004-06-03 06:56:14 51°13.752 2°52.713 254.5 1.3 202 8.8
2004-06-03 06:56:18 51°13.75 2°52.712 253.7 1.2 208 8.7
2004-06-03 06:56:24 51°13.748 2°52.71 253.2 1.3 208 8.7
2004-06-03 06:56:29 51°13.747 2°52.709 252.6 1.3 208 8.7
2004-06-03 06:56:33 51°13.746 2°52.708 252 1.3 211 8.7
2004-06-03 06:56:39 51°13.744 2°52.706 251.4 1.4 207 8.7
2004-06-03 06:56:44 51°13.742 2°52.705 251 1.4 209 8.7
2004-06-03 06:56:49 51°13.74 2°52.703 250.2 1.4 211 8.6
2004-06-03 06:56:54 51°13.738 2°52.701 249.9 1.5 215 8.5
2004-06-03 06:56:58 51°13.737 2°52.7 249.5 1.5 216 8.5
2004-06-03 06:57:04 51°13.735 2°52.698 249.1 1.5 214 8.4
2004-06-03 06:57:09 51°13.733 2°52.696 248.8 1.5 214 8.5
2004-06-03 06:57:14 51°13.731 2°52.694 248.6 1.6 214 8.6
2004-06-03 06:57:18 51°13.73 2°52.692 248.3 1.6 216 8.6
2004-06-03 06:57:24 51°13.728 2°52.69 248.2 1.6 216 8.6
2004-06-03 06:57:29 51°13.726 2°52.687 247.8 1.6 219 8.6
2004-06-03 06:57:34 51°13.724 2°52.685 247.7 1.6 219 8.6
2004-06-03 06:57:39 51°13.722 2°52.683 247.9 1.7 220 8.7
2004-06-03 06:57:44 51°13.721 2°52.68 248.2 1.7 217 8.7
2004-06-03 06:57:48 51°13.719 2°52.679 248.5 1.7 221 8.7
2004-06-03 06:57:54 51°13.717 2°52.676 248.9 1.8 218 8.7
2004-06-03 06:57:59 51°13.715 2°52.673 249 1.9 222 8.7
2004-06-03 06:58:04 51°13.713 2°52.67 249.3 2 223 8.6
2004-06-03 06:58:08 51°13.711 2°52.667 249 2.1 222 8.6
2004-06-03 06:58:14 51°13.709 2°52.663 249 2.2 223 8.6
2004-06-03 06:58:19 51°13.707 2°52.66 249 2.3 225 8.6
2004-06-03 06:58:24 51°13.704 2°52.656 248.9 2.4 227 8.6
2004-06-03 06:58:29 51°13.702 2°52.652 248.8 2.5 229 8.7
2004-06-03 06:58:34 51°13.7 2°52.648 248.9 2.5 228 8.6
2004-06-03 06:58:37 51°13.698 2°52.645 248.8 2.6 229 8.7
2004-06-03 06:58:44 51°13.695 2°52.639 249.1 2.7 232 8.6
2004-06-03 06:58:49 51°13.693 2°52.634 249.3 2.8 232 8.6
2004-06-03 06:58:54 51°13.69 2°52.629 249.6 2.9 231 8.7
2004-06-03 06:58:59 51°13.688 2°52.623 250.1 3 233 8.7
2004-06-03 06:59:04 51°13.685 2°52.618 250.8 3.1 235 8.7
2004-06-03 06:59:09 51°13.683 2°52.612 251.4 3.1 234 8.7
2004-06-03 06:59:14 51°13.68 2°52.607 251.9 3.1 235 8.6
2004-06-03 06:59:18 51°13.678 2°52.602 252.1 3.2 235 8.6
2004-06-03 06:59:24 51°13.675 2°52.595 252.6 3.3 237 8.6
2004-06-03 06:59:28 51°13.673 2°52.59 253 3.4 238 8.6
2004-06-03 06:59:34 51°13.67 2°52.582 253.4 3.5 237 8.5
2004-06-03 06:59:38 51°13.668 2°52.576 253.3 3.5 238 8.5
2004-06-03 06:59:44 51°13.665 2°52.569 253.3 3.6 237 8.6
2004-06-03 06:59:48 51°13.663 2°52.563 253 3.6 238 8.6
2004-06-03 06:59:54 51°13.659 2°52.555 252.8 3.7 238 8.7
2004-06-03 06:59:59 51°13.657 2°52.548 252.6 3.6 238 8.7
2004-06-03 07:00:04 51°13.654 2°52.542 252.1 3.7 239 8.7
2004-06-03 07:00:08 51°13.652 2°52.536 251.5 3.7 237 8.7
2004-06-03 07:00:14 51°13.648 2°52.528 251.2 3.6 237 8.7
2004-06-03 07:00:18 51°13.646 2°52.523 250.9 3.6 237 8.7
2004-06-03 07:00:24 51°13.643 2°52.514 250.8 3.6 238 8.7
2004-06-03 07:00:28 51°13.641 2°52.509 250.4 3.6 237 8.7
2004-06-03 07:00:33 51°13.638 2°52.502 250.4 3.7 238 8.8
2004-06-03 07:00:39 51°13.635 2°52.494 250.8 3.7 238 8.8
2004-06-03 07:00:44 51°13.632 2°52.487 251 3.7 237 8.7
2004-06-03 07:00:49 51°13.629 2°52.48 251 3.7 238 8.8
2004-06-03 07:00:54 51°13.626 2°52.473 251.1 3.7 238 8.8
2004-06-03 07:00:59 51°13.623 2°52.467 251 3.6 236 8.7
2004-06-03 07:01:04 51°13.621 2°52.46 250.6 3.6 237 8.7
2004-06-03 07:01:08 51°13.619 2°52.455 250.2 3.6 236 8.7
2004-06-03 07:01:14 51°13.615 2°52.447 249.8 3.7 238 8.7
2004-06-03 07:01:19 51°13.612 2°52.44 249.7 3.7 237 8.8
2004-06-03 07:01:24 51°13.609 2°52.433 249.4 3.7 236 8.8
2004-06-03 07:01:28 51°13.607 2°52.428 249.2 3.6 236 8.8
2004-06-03 07:01:32 51°13.605 2°52.422 248.8 3.6 237 8.7
2004-06-03 07:01:41 51°13.6 2°52.41 248.7 3.6 236 8.8
2004-06-03 07:01:47 51°13.597 2°52.403 248.4 3.6 236 8.8
2004-06-03 07:01:52 51°13.594 2°52.396 248.5 3.5 235 8.9
2004-06-03 07:01:57 51°13.591 2°52.39 248.8 3.5 235 8.8
2004-06-03 07:02:02 51°13.589 2°52.384 248.9 3.4 235 8.8
2004-06-03 07:02:06 51°13.587 2°52.379 249.1 3.4 235 8.8
2004-06-03 07:02:12 51°13.584 2°52.371 249.1 3.4 236 8.8
2004-06-03 07:02:17 51°13.581 2°52.365 249.2 3.3 235 8.8
2004-06-03 07:02:22 51°13.578 2°52.359 249.6 3.3 235 8.8
2004-06-03 07:02:24 51°13.577 2°52.357 250 3.3 237 8.8
2004-06-03 07:02:31 51°13.574 2°52.349 250.3 3.3 234 8.8
2004-06-03 07:02:37 51°13.57 2°52.341 250.9 3.2 235 8.7
2004-06-03 07:02:42 51°13.568 2°52.335 251.1 3.2 234 8.8
2004-06-03 07:02:47 51°13.566 2°52.329 252 3.3 236 8.8
2004-06-03 07:02:52 51°13.563 2°52.323 253.2 3.3 237 8.8
2004-06-03 07:02:57 51°13.561 2°52.318 254.5 3.2 238 8.9
2004-06-03 07:03:02 51°13.558 2°52.312 255.9 3.1 237 8.8
2004-06-03 07:03:07 51°13.556 2°52.306 256.9 3 238 8.8
2004-06-03 07:03:12 51°13.554 2°52.3 257.6 3 239 8.8
2004-06-03 07:03:17 51°13.552 2°52.295 258.7 3 237 8.9
2004-06-03 07:03:22 51°13.55 2°52.289 259.7 2.9 238 8.9
2004-06-03 07:03:26 51°13.548 2°52.285 260.7 2.9 239 8.9
2004-06-03 07:03:32 51°13.545 2°52.278 261.5 3 240 8.8
2004-06-03 07:03:37 51°13.543 2°52.272 262.1 2.8 239 8.9
2004-06-03 07:03:42 51°13.541 2°52.267 262.7 2.9 238 8.8
2004-06-03 07:03:44 51°13.54 2°52.265 263 2.9 240 8.8
2004-06-03 07:03:51 51°13.538 2°52.257 264.2 2.7 240 8.9
2004-06-03 07:03:57 51°13.535 2°52.251 265.4 2.8 240 8.8
2004-06-03 07:04:02 51°13.533 2°52.245 265.8 2.8 241 8.7
2004-06-03 07:04:06 51°13.532 2°52.241 266.1 2.8 241 8.9
2004-06-03 07:04:09 51°13.531 2°52.238 266.5 2.7 240 8.9
2004-06-03 07:04:17 51°13.528 2°52.23 267 2.7 241 8.9
2004-06-03 07:04:22 51°13.526 2°52.224 267 2.7 241 8.9
2004-06-03 07:04:24 51°13.525 2°52.222 267.3 2.7 241 8.9
2004-06-03 07:04:31 51°13.523 2°52.215 267.6 2.7 242 8.9
2004-06-03 07:04:37 51°13.521 2°52.209 267.8 2.6 240 8.9
2004-06-03 07:04:42 51°13.519 2°52.204 267.9 2.6 240 8.9
2004-06-03 07:04:47 51°13.517 2°52.199 268.1 2.6 240 8.9
2004-06-03 07:04:52 51°13.515 2°52.194 268.3 2.6 240 9
2004-06-03 07:04:57 51°13.513 2°52.189 268.3 2.6 239 8.9
2004-06-03 07:05:02 51°13.512 2°52.184 268.1 2.6 239 8.9
2004-06-03 07:05:04 51°13.511 2°52.182 268 2.6 241 9
2004-06-03 07:05:12 51°13.508 2°52.174 268.4 2.6 241 8.9
2004-06-03 07:05:17 51°13.506 2°52.169 268.4 2.6 238 9
2004-06-03 07:05:22 51°13.504 2°52.164 268.6 2.6 238 8.9
2004-06-03 07:05:24 51°13.504 2°52.162 268 2.6 240 8.8
2004-06-03 07:05:30 51°13.501 2°52.156 267.7 2.5 238 8.9
2004-06-03 07:05:36 51°13.499 2°52.151 267.4 2.5 237 8.9
2004-06-03 07:05:42 51°13.497 2°52.145 267.5 2.6 237 9
2004-06-03 07:05:44 51°13.496 2°52.143 267.5 2.6 237 9
2004-06-03 07:05:52 51°13.493 2°52.136 267.4 2.6 236 9
2004-06-03 07:05:56 51°13.491 2°52.132 267.3 2.6 236 9
2004-06-03 07:06:02 51°13.489 2°52.126 267.2 2.5 236 8.9
2004-06-03 07:06:04 51°13.488 2°52.124 267 2.5 238 8.9
2004-06-03 07:06:12 51°13.484 2°52.116 266.9 2.5 236 8.9
2004-06-03 07:06:16 51°13.483 2°52.113 266.8 2.5 236 9
2004-06-03 07:06:22 51°13.48 2°52.107 266.6 2.6 236 9
2004-06-03 07:06:26 51°13.479 2°52.104 266.8 2.5 235 9
2004-06-03 07:06:32 51°13.476 2°52.098 267 2.5 235 8.9
2004-06-03 07:06:37 51°13.474 2°52.094 267 2.5 237 8.9
2004-06-03 07:06:42 51°13.472 2°52.089 266.4 2.5 236 8.9
2004-06-03 07:06:47 51°13.47 2°52.085 266.4 2.5 236 8.8
2004-06-03 07:06:50 51°13.469 2°52.082 266 2.5 234 8.9
2004-06-03 07:06:57 51°13.467 2°52.076 265.9 2.5 235 8.9
2004-06-03 07:07:02 51°13.465 2°52.071 266.1 2.5 235 9
2004-06-03 07:07:06 51°13.463 2°52.068 266.1 2.5 235 9
2004-06-03 07:07:12 51°13.461 2°52.063 265.9 2.5 237 9
2004-06-03 07:07:17 51°13.459 2°52.059 265.9 2.4 234 8.9
2004-06-03 07:07:22 51°13.457 2°52.054 265.2 2.4 235 8.9
2004-06-03 07:07:26 51°13.456 2°52.051 264.9 2.4 235 8.9
2004-06-03 07:07:30 51°13.454 2°52.047 264.5 2.4 232 9
2004-06-03 07:07:37 51°13.451 2°52.041 263.9 2.5 233 9
2004-06-03 07:07:42 51°13.449 2°52.037 263.4 2.5 233 8.9
2004-06-03 07:07:46 51°13.448 2°52.034 262.7 2.4 233 8.9
2004-06-03 07:07:52 51°13.445 2°52.029 262.6 2.4 231 8.9
2004-06-03 07:07:56 51°13.444 2°52.026 261.8 2.4 232 8.9
2004-06-03 07:08:02 51°13.441 2°52.02 261.5 2.4 233 8.9
2004-06-03 07:08:06 51°13.44 2°52.017 261.2 2.4 233 8.9
2004-06-03 07:08:12 51°13.437 2°52.012 261.1 2.4 233 8.9
2004-06-03 07:08:17 51°13.435 2°52.008 261.1 2.4 231 8.9
2004-06-03 07:08:20 51°13.434 2°52.005 261.2 2.4 235 9
2004-06-03 07:08:24 51°13.432 2°52.002 261.2 2.4 232 9
2004-06-03 07:08:32 51°13.429 2°51.995 261.4 2.3 233 8.9
2004-06-03 07:08:37 51°13.427 2°51.991 261.4 2.4 232 8.9
2004-06-03 07:08:42 51°13.425 2°51.987 261.6 2.3 235 8.9
2004-06-03 07:08:44 51°13.425 2°51.986 262 2.3 234 8.9
2004-06-03 07:08:52 51°13.422 2°51.979 262 2.3 234 9
2004-06-03 07:08:56 51°13.42 2°51.976 262.2 2.4 233 9
2004-06-03 07:09:02 51°13.417 2°51.97 262.3 2.3 233 9
2004-06-03 07:09:04 51°13.417 2°51.969 262.1 2.4 231 9
2004-06-03 07:09:12 51°13.414 2°51.963 262.4 2.3 235 9
2004-06-03 07:09:16 51°13.412 2°51.959 262.4 2.4 234 9
2004-06-03 07:09:22 51°13.41 2°51.954 262.6 2.4 231 8.9
2004-06-03 07:09:26 51°13.408 2°51.951 262.3 2.4 233 8.8
2004-06-03 07:09:32 51°13.406 2°51.946 262.2 2.3 231 8.9
2004-06-03 07:09:37 51°13.404 2°51.942 262.2 2.4 234 8.9
2004-06-03 07:09:42 51°13.402 2°51.938 262.4 2.4 232 9
2004-06-03 07:09:46 51°13.4 2°51.935 262.8 2.4 234 9
2004-06-03 07:09:52 51°13.398 2°51.929 263.2 2.4 232 9
2004-06-03 07:09:57 51°13.396 2°51.925 263.4 2.3 233 8.9
2004-06-03 07:10:01 51°13.394 2°51.922 262.9 2.4 230 8.9
2004-06-03 07:10:07 51°13.392 2°51.917 262.7 2.3 232 8.9
2004-06-03 07:10:12 51°13.39 2°51.913 262.4 2.3 232 9
2004-06-03 07:10:17 51°13.388 2°51.909 262.2 2.3 231 8.9
2004-06-03 07:10:22 51°13.386 2°51.905 262 2.3 233 8.9
2004-06-03 07:10:25 51°13.384 2°51.902 262 2.4 232 9
2004-06-03 07:10:32 51°13.382 2°51.897 262 2.3 233 8.9
2004-06-03 07:10:36 51°13.38 2°51.894 262 2.3 231 8.9
2004-06-03 07:10:42 51°13.377 2°51.889 262.1 2.3 231 8.9
2004-06-03 07:10:46 51°13.376 2°51.885 261.8 2.3 230 8.9
2004-06-03 07:10:52 51°13.373 2°51.881 261.6 2.3 232 9
2004-06-03 07:10:57 51°13.371 2°51.877 261.2 2.3 230 9
2004-06-03 07:11:02 51°13.369 2°51.873 261.1 2.3 233 9
2004-06-03 07:11:07 51°13.367 2°51.869 261.1 2.3 231 9
2004-06-03 07:11:12 51°13.365 2°51.865 261.2 2.3 232 9
2004-06-03 07:11:17 51°13.363 2°51.861 261.2 2.4 232 8.9
2004-06-03 07:11:22 51°13.361 2°51.857 261.2 2.4 230 9
2004-06-03 07:11:27 51°13.359 2°51.853 261.2 2.3 229 9
2004-06-03 07:11:32 51°13.357 2°51.849 262 2.4 228 8.9
2004-06-03 07:11:36 51°13.356 2°51.846 262.4 2.3 229 8.9
2004-06-03 07:11:42 51°13.353 2°51.841 262 2.3 231 8.9
2004-06-03 07:11:46 51°13.351 2°51.837 262.2 2.3 232 8.9
2004-06-03 07:11:50 51°13.35 2°51.834 262.5 2.3 232 8.9
2004-06-03 07:11:57 51°13.347 2°51.828 262.7 2.3 232 8.9
2004-06-03 07:12:02 51°13.345 2°51.825 262.8 2.3 233 8.9
2004-06-03 07:12:07 51°13.343 2°51.82 262.9 2.3 232 8.9
2004-06-03 07:12:12 51°13.341 2°51.816 263 2.3 233 8.9
2004-06-03 07:12:17 51°13.339 2°51.813 263 2.3 231 8.9
2004-06-03 07:12:22 51°13.337 2°51.808 262.9 2.3 231 8.9
2004-06-03 07:12:27 51°13.335 2°51.804 262.9 2.2 232 8.9
2004-06-03 07:12:32 51°13.333 2°51.8 263 2.3 232 8.9
2004-06-03 07:12:37 51°13.332 2°51.796 263.4 2.3 234 8.9
2004-06-03 07:12:42 51°13.33 2°51.792 263.6 2.3 233 8.8
2004-06-03 07:12:47 51°13.328 2°51.788 264 2.3 234 8.8
2004-06-03 07:12:52 51°13.326 2°51.784 264.1 2.3 232 8.8
2004-06-03 07:12:57 51°13.324 2°51.78 264.1 2.3 233 8.8
2004-06-03 07:13:02 51°13.322 2°51.776 263.7 2.3 233 8.8
2004-06-03 07:13:08 51°13.319 2°51.772 263.9 2.3 230 8.7
2004-06-03 07:13:12 51°13.318 2°51.768 263.5 2.3 230 8.7
2004-06-03 07:13:17 51°13.316 2°51.765 263.4 2.2 234 8.7
2004-06-03 07:13:22 51°13.314 2°51.761 263.5 2.3 232 8.8
2004-06-03 07:13:24 51°13.313 2°51.759 263.7 2.3 232 8.8
2004-06-03 07:13:30 51°13.311 2°51.754 264 2.3 232 8.9
2004-06-03 07:13:36 51°13.309 2°51.749 264.1 2.3 234 8.8
2004-06-03 07:13:42 51°13.306 2°51.744 264.8 2.3 232 8.9
2004-06-03 07:13:44 51°13.305 2°51.743 265.6 2.3 233 8.9
2004-06-03 07:13:52 51°13.302 2°51.736 265.9 2.3 232 9
2004-06-03 07:13:56 51°13.301 2°51.733 266.5 2.3 234 8.9
2004-06-03 07:14:02 51°13.299 2°51.728 266.7 2.3 233 8.9
2004-06-03 07:14:04 51°13.298 2°51.727 266.9 2.2 234 8.9
2004-06-03 07:14:12 51°13.296 2°51.72 267.1 2.2 234 8.9
2004-06-03 07:14:17 51°13.293 2°51.716 267.4 2.2 235 8.9
2004-06-03 07:14:22 51°13.292 2°51.712 267.9 2.2 234 8.9
2004-06-03 07:14:25 51°13.291 2°51.71 267.9 2.2 233 8.8
2004-06-03 07:14:32 51°13.288 2°51.704 267.9 2.2 233 8.7
2004-06-03 07:14:37 51°13.286 2°51.701 268.1 2.2 234 8.8
2004-06-03 07:14:42 51°13.285 2°51.697 268.2 2.2 237 8.8
2004-06-03 07:14:44 51°13.284 2°51.695 268.6 2.2 235 8.8
2004-06-03 07:14:52 51°13.281 2°51.689 268.7 2.2 235 8.9
2004-06-03 07:14:56 51°13.28 2°51.685 269 2.2 233 8.9
2004-06-03 07:15:02 51°13.277 2°51.681 269.1 2.2 234 8.9
2004-06-03 07:15:04 51°13.277 2°51.679 269.1 2.1 235 8.9
2004-06-03 07:15:12 51°13.274 2°51.673 269.1 2.1 236 8.9
2004-06-03 07:15:17 51°13.272 2°51.669 269.3 2.2 234 8.8
2004-06-03 07:15:22 51°13.27 2°51.665 269.3 2.1 235 8.8
2004-06-03 07:15:25 51°13.269 2°51.663 269.2 2.2 234 8.8
2004-06-03 07:15:32 51°13.267 2°51.657 269.3 2.2 234 8.8
2004-06-03 07:15:37 51°13.265 2°51.654 269.4 2.2 234 8.8
2004-06-03 07:15:42 51°13.263 2°51.65 269.8 2.1 235 8.8
2004-06-03 07:15:44 51°13.262 2°51.648 270.1 2.2 234 8.8
2004-06-03 07:15:50 51°13.26 2°51.643 270.3 2.2 235 8.8
2004-06-03 07:15:56 51°13.258 2°51.639 270.5 2.2 234 8.8
2004-06-03 07:16:02 51°13.256 2°51.634 270.6 2.2 235 8.8
2004-06-03 07:16:04 51°13.256 2°51.632 270.7 2.1 235 8.8
2004-06-03 07:16:12 51°13.253 2°51.626 270.8 2.2 237 8.8
2004-06-03 07:16:16 51°13.251 2°51.623 270.9 2.2 235 8.7
2004-06-03 07:16:22 51°13.249 2°51.618 271 2.2 237 8.7
2004-06-03 07:16:24 51°13.248 2°51.617 271 2.2 234 8.7
2004-06-03 07:16:32 51°13.245 2°51.611 270.9 2.2 233 8.7
2004-06-03 07:16:37 51°13.244 2°51.607 270.8 2.2 235 8.7
2004-06-03 07:16:42 51°13.242 2°51.603 270.9 2.2 235 8.7
2004-06-03 07:16:45 51°13.241 2°51.6 270.7 2.2 235 8.7
2004-06-03 07:16:52 51°13.238 2°51.595 270.9 2.2 233 8.7
2004-06-03 07:16:57 51°13.236 2°51.591 270.9 2.1 234 8.7
2004-06-03 07:17:02 51°13.234 2°51.587 270.9 2.1 235 8.8
2004-06-03 07:17:04 51°13.234 2°51.586 270.8 2.1 234 8.8
2004-06-03 07:17:12 51°13.231 2°51.579 270.8 2.2 235 8.8
2004-06-03 07:17:16 51°13.23 2°51.576 271 2.2 234 8.7
2004-06-03 07:17:22 51°13.227 2°51.572 270.8 2.2 234 8.7
2004-06-03 07:17:24 51°13.226 2°51.57 270.8 2.1 234 8.7
2004-06-03 07:17:32 51°13.223 2°51.564 270.9 2.3 229 8.7
2004-06-03 07:17:37 51°13.222 2°51.56 271.1 2.1 236 8.7
2004-06-03 07:17:42 51°13.22 2°51.556 271.4 2.2 233 8.8
2004-06-03 07:17:45 51°13.219 2°51.554 271.6 2.1 234 8.8
2004-06-03 07:17:52 51°13.216 2°51.548 271.9 2.1 234 8.8
2004-06-03 07:17:57 51°13.215 2°51.544 272 2.2 235 8.8
2004-06-03 07:18:02 51°13.213 2°51.54 272.1 2.2 233 8.8
2004-06-03 07:18:05 51°13.212 2°51.538 272.1 2.2 234 8.7
2004-06-03 07:18:12 51°13.209 2°51.533 272.2 2.2 234 8.7
2004-06-03 07:18:17 51°13.208 2°51.529 272.4 2.2 236 8.7
2004-06-03 07:18:22 51°13.206 2°51.525 272.9 2.1 235 8.7
2004-06-03 07:18:25 51°13.205 2°51.522 272.9 2.1 234 8.8
2004-06-03 07:18:32 51°13.202 2°51.517 273.3 2.1 234 8.8
2004-06-03 07:18:37 51°13.201 2°51.513 273.6 2.1 235 8.8
2004-06-03 07:18:42 51°13.199 2°51.51 273.2 2.1 235 8.7
2004-06-03 07:18:44 51°13.198 2°51.508 273.1 2.2 236 8.7
2004-06-03 07:18:52 51°13.196 2°51.502 273 2 235 8.7
2004-06-03 07:18:56 51°13.194 2°51.499 273 2.1 235 8.7
2004-06-03 07:19:02 51°13.192 2°51.495 273.3 2 236 8.6
2004-06-03 07:19:04 51°13.191 2°51.493 273.6 2.1 233 8.7
2004-06-03 07:19:12 51°13.189 2°51.487 274.1 2.1 234 8.7
2004-06-03 07:19:17 51°13.187 2°51.483 274.5 2.1 234 8.7
2004-06-03 07:19:22 51°13.185 2°51.48 275 2.1 235 8.8
2004-06-03 07:19:25 51°13.184 2°51.477 275.1 2.3 237 8.9
2004-06-03 07:19:32 51°13.182 2°51.468 275.6 2.7 244 8.8
2004-06-03 07:19:37 51°13.18 2°51.46 275.5 3.9 250 8.8
2004-06-03 07:19:42 51°13.179 2°51.451 275 4.4 254 8.8
2004-06-03 07:19:45 51°13.178 2°51.444 274.2 5.2 256 8.8
2004-06-03 07:19:52 51°13.174 2°51.424 271.5 6.7 255 8.8
2004-06-03 07:19:56 51°13.172 2°51.41 268.3 8.1 254 8.7
2004-06-03 07:20:02 51°13.167 2°51.388 264.4 8.9 253 8.6
2004-06-03 07:20:07 51°13.163 2°51.367 260.4 10.1 249 8.6
2004-06-03 07:20:10 51°13.159 2°51.354 256.5 10.5 247 8.6
2004-06-03 07:20:17 51°13.15 2°51.321 254.1 11.8 245 8.7
2004-06-03 07:20:22 51°13.142 2°51.297 251.8 12.4 244 8.7
2004-06-03 07:20:26 51°13.136 2°51.276 250.7 13 244 8.8
2004-06-03 07:20:32 51°13.125 2°51.244 248.7 13.6 243 8.7
2004-06-03 07:20:37 51°13.117 2°51.217 249.2 13.8 244 8.7
2004-06-03 07:20:42 51°13.107 2°51.19 247.5 14 241 8.6
2004-06-03 07:20:46 51°13.1 2°51.167 247.6 14.2 242 8.6
2004-06-03 07:20:49 51°13.094 2°51.151 247.1 14.4 243 8.6
2004-06-03 07:20:57 51°13.079 2°51.106 246.8 14.5 240 8.7
2004-06-03 07:21:02 51°13.069 2°51.077 246.6 14.7 241 8.7
2004-06-03 07:21:05 51°13.064 2°51.06 246.6 14.8 242 8.7
2004-06-03 07:21:12 51°13.05 2°51.019 247.8 14.8 241 8.7
2004-06-03 07:21:16 51°13.042 2°50.997 246.9 15 240 8.6
2004-06-03 07:21:22 51°13.03 2°50.961 246 15 242 8.6
2004-06-03 07:21:26 51°13.022 2°50.939 246.8 14.9 240 8.6
2004-06-03 07:21:32 51°13.01 2°50.904 245.4 14.9 241 8.6
2004-06-03 07:21:37 51°12.999 2°50.875 245.4 15 240 8.6
2004-06-03 07:21:41 51°12.992 2°50.852 246 15 241 8.6
2004-06-03 07:21:47 51°12.979 2°50.817 245.3 14.9 241 8.6
2004-06-03 07:21:52 51°12.969 2°50.788 246 14.9 242 8.6
2004-06-03 07:21:56 51°12.961 2°50.765 245.9 15 242 8.7
2004-06-03 07:22:02 51°12.949 2°50.73 246.3 15.1 240 8.7
2004-06-03 07:22:06 51°12.941 2°50.706 245.7 15.2 243 8.7
2004-06-03 07:22:09 51°12.936 2°50.688 246.7 15.1 241 8.7
2004-06-03 07:22:17 51°12.919 2°50.642 245.5 15.2 241 8.7
2004-06-03 07:22:21 51°12.911 2°50.618 245.6 15.3 242 8.7
2004-06-03 07:22:28 51°12.897 2°50.577 246.2 15.3 242 8.7
2004-06-03 07:22:32 51°12.888 2°50.553 246.3 15.2 240 8.7
2004-06-03 07:22:37 51°12.879 2°50.524 245.9 15.1 242 8.7
2004-06-03 07:22:42 51°12.868 2°50.495 246.3 15.2 240 8.7
2004-06-03 07:22:46 51°12.86 2°50.471 245.3 15.2 241 8.6
2004-06-03 07:22:52 51°12.848 2°50.436 245 15.3 241 8.6
2004-06-03 07:22:56 51°12.84 2°50.412 245.4 15.2 242 8.6
2004-06-03 07:23:02 51°12.827 2°50.377 246.9 15.1 241 8.7
2004-06-03 07:23:07 51°12.818 2°50.347 246.2 15.3 243 8.7
2004-06-03 07:23:12 51°12.808 2°50.317 247.3 15.3 243 8.7
2004-06-03 07:23:17 51°12.798 2°50.287 248.1 15.2 243 8.8
2004-06-03 07:23:22 51°12.789 2°50.257 249 15.1 245 8.8
2004-06-03 07:23:26 51°12.782 2°50.233 249.3 15.1 243 8.8
2004-06-03 07:23:32 51°12.771 2°50.197 249.3 15.2 244 8.8
2004-06-03 07:23:37 51°12.761 2°50.167 249.1 15.2 243 8.8
2004-06-03 07:23:42 51°12.75 2°50.137 247.9 15.3 241 8.8
2004-06-03 07:23:47 51°12.741 2°50.107 247.2 15.4 242 8.8
2004-06-03 07:23:52 51°12.731 2°50.077 246.7 15.4 242 8.8
2004-06-03 07:23:57 51°12.72 2°50.048 247.4 15.2 241 8.8
2004-06-03 07:24:02 51°12.71 2°50.019 246.3 15.1 241 8.8
2004-06-03 07:24:07 51°12.7 2°49.989 245.1 15.2 240 8.8
2004-06-03 07:24:12 51°12.69 2°49.96 246.7 15.2 242 8.8
2004-06-03 07:24:17 51°12.68 2°49.93 246.1 15.2 242 9
2004-06-03 07:24:22 51°12.67 2°49.901 247.3 15.2 242 8.9
2004-06-03 07:24:27 51°12.66 2°49.871 246.5 15.1 242 8.9
2004-06-03 07:24:32 51°12.65 2°49.842 246.9 15.2 240 8.8
2004-06-03 07:24:37 51°12.64 2°49.812 246.2 15.2 243 8.9
2004-06-03 07:24:42 51°12.63 2°49.782 247.2 15.1 242 8.8
2004-06-03 07:24:44 51°12.626 2°49.77 247 15.2 243 8.9
2004-06-03 07:24:52 51°12.611 2°49.723 247.7 15.1 243 8.9
2004-06-03 07:24:57 51°12.601 2°49.693 247.6 15.3 242 8.9
2004-06-03 07:25:02 51°12.592 2°49.662 247.9 15.3 245 8.9
2004-06-03 07:25:05 51°12.586 2°49.645 248.3 15.3 242 9
2004-06-03 07:25:12 51°12.574 2°49.602 248.2 15.2 244 9
2004-06-03 07:25:16 51°12.566 2°49.579 249.3 15.3 242 9.1
2004-06-03 07:25:22 51°12.555 2°49.542 248.2 15.4 245 9
2004-06-03 07:25:26 51°12.548 2°49.517 249.3 15.4 245 9
2004-06-03 07:25:32 51°12.537 2°49.481 249.8 15.4 245 9
2004-06-03 07:25:37 51°12.528 2°49.45 250.2 15.3 245 9.1
2004-06-03 07:25:42 51°12.518 2°49.419 249.8 15.5 244 9
2004-06-03 07:25:45 51°12.513 2°49.4 250 15.5 245 9.1
2004-06-03 07:25:52 51°12.5 2°49.357 250.2 15.5 244 9.1
2004-06-03 07:25:57 51°12.49 2°49.326 249.2 15.5 244 9.2
2004-06-03 07:26:02 51°12.48 2°49.296 249.5 15.5 243 9.1
2004-06-03 07:26:07 51°12.471 2°49.266 248 15.5 242 9.1
2004-06-03 07:26:12 51°12.461 2°49.235 247.9 15.5 243 9.1
2004-06-03 07:26:16 51°12.453 2°49.211 248 15.5 243 9.1
2004-06-03 07:26:22 51°12.441 2°49.174 248.2 15.5 243 9
2004-06-03 07:26:26 51°12.433 2°49.15 247.2 15.5 244 9.1
2004-06-03 07:26:32 51°12.421 2°49.114 248.3 15.3 241 9.1
2004-06-03 07:26:37 51°12.412 2°49.084 246.7 15.3 243 9.2
2004-06-03 07:26:42 51°12.402 2°49.054 247.5 15.3 242 9.2
2004-06-03 07:26:44 51°12.398 2°49.042 246.6 15.4 242 9.1
2004-06-03 07:26:52 51°12.382 2°48.993 246.7 15.6 242 9.2
2004-06-03 07:26:57 51°12.372 2°48.963 247.5 15.4 241 9.2
2004-06-03 07:27:02 51°12.362 2°48.933 245.7 15.4 242 9.2
2004-06-03 07:27:07 51°12.351 2°48.904 247.1 15.3 244 9.2
2004-06-03 07:27:12 51°12.342 2°48.873 246.6 15.4 240 9.2
2004-06-03 07:27:17 51°12.331 2°48.843 246.6 15.5 241 9.2
2004-06-03 07:27:22 51°12.321 2°48.813 246.3 15.4 241 9.2
2004-06-03 07:27:27 51°12.31 2°48.784 245.1 15.5 240 9.2
2004-06-03 07:27:32 51°12.3 2°48.753 245.1 15.6 243 9.2
2004-06-03 07:27:36 51°12.292 2°48.729 246.7 15.5 241 9.2
2004-06-03 07:27:42 51°12.28 2°48.692 246.5 15.6 243 9.2
2004-06-03 07:27:45 51°12.274 2°48.674 248 15.5 244 9.3
2004-06-03 07:27:52 51°12.261 2°48.631 248.7 15.5 243 9.3
2004-06-03 07:27:57 51°12.251 2°48.6 248 15.5 244 9.3
2004-06-03 07:28:01 51°12.244 2°48.576 248.6 15.5 244 9.3
2004-06-03 07:28:07 51°12.231 2°48.54 247.5 15.6 242 9.3
2004-06-03 07:28:12 51°12.222 2°48.509 248.1 15.6 242 9.3
2004-06-03 07:28:17 51°12.212 2°48.479 247.1 15.6 241 9.4
2004-06-03 07:28:22 51°12.202 2°48.449 246.5 15.5 242 9.3
2004-06-03 07:28:26 51°12.193 2°48.425 246 15.5 241 9.4
2004-06-03 07:28:32 51°12.181 2°48.389 246.5 15.4 242 9.3
2004-06-03 07:28:37 51°12.171 2°48.358 245.7 15.6 242 9.3
2004-06-03 07:28:42 51°12.161 2°48.328 246.5 15.5 243 9.3
2004-06-03 07:28:47 51°12.15 2°48.298 245.3 15.6 239 9.3
2004-06-03 07:28:52 51°12.14 2°48.268 244.8 15.5 241 9.4
2004-06-03 07:28:57 51°12.129 2°48.239 245.3 15.5 241 9.4
2004-06-03 07:29:02 51°12.118 2°48.208 245 15.5 242 9.3
2004-06-03 07:29:06 51°12.11 2°48.184 245.5 15.5 241 9.3
2004-06-03 07:29:12 51°12.098 2°48.148 246 15.5 242 9.4
2004-06-03 07:29:17 51°12.089 2°48.118 246.3 15.5 243 9.4
2004-06-03 07:29:22 51°12.079 2°48.088 247 15.4 243 9.4
2004-06-03 07:29:27 51°12.069 2°48.057 247.7 15.5 244 9.4
2004-06-03 07:29:32 51°12.06 2°48.026 248.5 15.5 245 9.4
2004-06-03 07:29:37 51°12.051 2°47.995 249.4 15.6 243 9.4
2004-06-03 07:29:41 51°12.044 2°47.97 249.3 15.5 247 9.4
2004-06-03 07:29:45 51°12.037 2°47.946 250.2 15.4 244 9.5
2004-06-03 07:29:52 51°12.024 2°47.902 249.7 15.5 245 9.4
2004-06-03 07:29:57 51°12.014 2°47.871 249.6 15.6 243 9.5
2004-06-03 07:30:02 51°12.004 2°47.841 247.9 15.6 243 9.5
2004-06-03 07:30:04 51°12 2°47.828 247.9 15.6 244 9.5
2004-06-03 07:30:12 51°11.985 2°47.78 247.7 15.5 243 9.5
2004-06-03 07:30:17 51°11.974 2°47.75 246.3 15.6 242 9.5
2004-06-03 07:30:22 51°11.964 2°47.719 246.3 15.7 242 9.4
2004-06-03 07:30:27 51°11.954 2°47.689 246 15.5 242 9.4
2004-06-03 07:30:32 51°11.943 2°47.659 246.2 15.5 240 9.4
2004-06-03 07:30:37 51°11.933 2°47.629 245.2 15.6 243 9.4
2004-06-03 07:30:40 51°11.927 2°47.611 245.4 15.5 240 9.3
2004-06-03 07:30:47 51°11.912 2°47.57 244.6 15.5 240 9.4
2004-06-03 07:30:52 51°11.901 2°47.54 244.1 15.5 242 9.3
2004-06-03 07:30:57 51°11.89 2°47.51 245.1 15.5 240 9.3
2004-06-03 07:31:02 51°11.88 2°47.48 244.5 15.6 241 9.3
2004-06-03 07:31:07 51°11.87 2°47.45 246 15.5 242 9.3
2004-06-03 07:31:10 51°11.864 2°47.431 246.6 15.5 243 9.3
2004-06-03 07:31:22 51°11.842 2°47.357 248 15.6 244 9.3
2004-06-03 07:31:27 51°11.832 2°47.327 248.9 15.4 244 9.3
2004-06-03 07:31:32 51°11.823 2°47.296 248.9 15.4 243 9.2
2004-06-03 07:31:36 51°11.815 2°47.271 247.7 15.6 245 9.2
2004-06-03 07:31:42 51°11.804 2°47.235 249.5 15.4 244 9.1
2004-06-03 07:31:46 51°11.796 2°47.21 247.6 15.4 244 9.1
2004-06-03 07:31:52 51°11.784 2°47.174 248.3 15.4 244 9.1
2004-06-03 07:31:56 51°11.776 2°47.149 247.7 15.5 243 9.1
2004-06-03 07:32:02 51°11.764 2°47.113 247 15.5 242 9.2
2004-06-03 07:32:07 51°11.754 2°47.083 245.5 15.5 241 9.1
2004-06-03 07:32:12 51°11.744 2°47.054 245.6 15.4 242 9.1
2004-06-03 07:32:17 51°11.733 2°47.023 245.1 15.5 242 9.1
2004-06-03 07:32:22 51°11.723 2°46.993 245.8 15.4 241 9.1
2004-06-03 07:32:25 51°11.718 2°46.975 246.3 15.4 243 9.1
2004-06-03 07:32:32 51°11.704 2°46.933 247.1 15.4 243 9.1
2004-06-03 07:32:37 51°11.694 2°46.902 247.1 15.4 243 9
2004-06-03 07:32:42 51°11.684 2°46.872 247.2 15.4 243 9
2004-06-03 07:32:47 51°11.675 2°46.842 247.1 15.5 243 9
2004-06-03 07:32:52 51°11.665 2°46.811 248.2 15.5 245 9
2004-06-03 07:32:57 51°11.655 2°46.781 247.6 15.4 242 9
2004-06-03 07:33:02 51°11.646 2°46.751 246.7 15.5 243 9
2004-06-03 07:33:05 51°11.64 2°46.733 247.3 15.4 243 9.1
2004-06-03 07:33:12 51°11.625 2°46.691 245.8 15.4 241 9
2004-06-03 07:33:17 51°11.616 2°46.661 246.3 15.4 242 9.1
2004-06-03 07:33:22 51°11.605 2°46.631 246.1 15.3 240 9.1
2004-06-03 07:33:26 51°11.597 2°46.607 244.5 15.5 241 9.1
2004-06-03 07:33:32 51°11.585 2°46.571 245.5 15.5 242 9
2004-06-03 07:33:37 51°11.575 2°46.541 245.7 15.4 243 9
2004-06-03 07:33:42 51°11.565 2°46.511 246.9 15.4 244 9.1
2004-06-03 07:33:47 51°11.556 2°46.48 247.5 15.5 244 9
2004-06-03 07:33:52 51°11.547 2°46.449 249.5 15.4 246 9
2004-06-03 07:33:56 51°11.54 2°46.424 249.2 15.4 244 9
2004-06-03 07:34:02 51°11.529 2°46.388 249.2 15.4 244 9
2004-06-03 07:34:07 51°11.519 2°46.357 248.2 15.4 243 9.1
2004-06-03 07:34:12 51°11.51 2°46.327 248.2 15.3 243 9
2004-06-03 07:34:17 51°11.5 2°46.297 247.5 15.4 244 9
2004-06-03 07:34:22 51°11.49 2°46.267 247.6 15.4 242 9.1
2004-06-03 07:34:27 51°11.481 2°46.236 247.5 15.4 244 9.1
2004-06-03 07:34:32 51°11.471 2°46.206 247.3 15.4 242 9
2004-06-03 07:34:37 51°11.462 2°46.176 246.3 15.4 244 9
2004-06-03 07:34:42 51°11.451 2°46.146 247.3 15.3 242 9
2004-06-03 07:34:47 51°11.442 2°46.116 246.1 15.4 243 9
2004-06-03 07:34:52 51°11.432 2°46.085 247.3 15.4 242 9
2004-06-03 07:34:56 51°11.424 2°46.061 247.1 15.4 242 9
2004-06-03 07:35:02 51°11.412 2°46.025 246.2 15.4 242 9
2004-06-03 07:35:07 51°11.403 2°45.995 246.1 15.4 243 9
2004-06-03 07:35:12 51°11.393 2°45.965 246.7 15.3 244 9
2004-06-03 07:35:17 51°11.383 2°45.935 247.6 15.2 242 8.9
2004-06-03 07:35:22 51°11.374 2°45.904 246.7 15.4 244 8.9
2004-06-03 07:35:26 51°11.367 2°45.879 248.3 15.5 245 8.9
2004-06-03 07:35:32 51°11.356 2°45.843 248.2 15.4 245 8.9
2004-06-03 07:35:37 51°11.346 2°45.813 248.2 15.3 243 8.9
2004-06-03 07:35:42 51°11.337 2°45.782 247.6 15.4 244 8.9
2004-06-03 07:35:47 51°11.327 2°45.751 247.4 15.5 245 8.8
2004-06-03 07:35:52 51°11.319 2°45.72 248.9 15.3 245 8.9
2004-06-03 07:35:57 51°11.309 2°45.69 249.7 15.4 245 8.8
2004-06-03 07:36:01 51°11.302 2°45.665 248.8 15.4 246 8.8
2004-06-03 07:36:07 51°11.291 2°45.628 248.9 15.4 244 8.8
2004-06-03 07:36:12 51°11.282 2°45.598 248.5 15.3 244 8.8
2004-06-03 07:36:17 51°11.272 2°45.568 248.2 15.3 243 8.8
2004-06-03 07:36:22 51°11.262 2°45.538 246.7 15.4 242 8.7
2004-06-03 07:36:27 51°11.253 2°45.507 246 15.3 243 8.8
2004-06-03 07:36:32 51°11.243 2°45.478 246.8 15.3 243 8.7
2004-06-03 07:36:37 51°11.234 2°45.447 246.3 15.4 245 8.7
2004-06-03 07:36:42 51°11.224 2°45.417 247.5 15.3 243 8.7
2004-06-03 07:36:46 51°11.216 2°45.393 247.3 15.3 244 8.7
2004-06-03 07:36:52 51°11.205 2°45.357 247.1 15.2 243 8.7
2004-06-03 07:36:56 51°11.197 2°45.333 246.7 15.3 243 8.6
2004-06-03 07:37:02 51°11.186 2°45.296 246.7 15.3 244 8.6
2004-06-03 07:37:07 51°11.177 2°45.266 247.5 15.2 244 8.6
2004-06-03 07:37:12 51°11.168 2°45.235 249.2 15.2 246 8.5
2004-06-03 07:37:17 51°11.16 2°45.204 249.8 15.3 247 8.5
2004-06-03 07:37:22 51°11.152 2°45.174 250.9 15.2 247 8.5
2004-06-03 07:37:25 51°11.147 2°45.155 251.7 15.1 247 8.5
2004-06-03 07:37:32 51°11.135 2°45.112 251.2 15.1 247 8.5
2004-06-03 07:37:37 51°11.126 2°45.081 250.1 15.3 245 8.5
2004-06-03 07:37:42 51°11.117 2°45.051 249.3 15.2 244 8.4
2004-06-03 07:37:44 51°11.113 2°45.04 247.4 15.1 242 8.5
2004-06-03 07:37:51 51°11.099 2°44.999 245.3 15.3 240 8.4
2004-06-03 07:37:57 51°11.086 2°44.964 244.5 15.2 240 8.4
2004-06-03 07:38:02 51°11.075 2°44.935 242.7 15.2 239 8.5
2004-06-03 07:38:07 51°11.064 2°44.906 242.1 15.2 239 8.5
2004-06-03 07:38:12 51°11.053 2°44.877 241.9 15.2 239 8.5
2004-06-03 07:38:17 51°11.043 2°44.848 241.6 15.2 241 8.4
2004-06-03 07:38:22 51°11.033 2°44.82 243.5 15.2 240 8.4
2004-06-03 07:38:27 51°11.024 2°44.789 243.8 15.3 245 8.3
2004-06-03 07:38:32 51°11.015 2°44.758 247.4 15.2 249 8.3
2004-06-03 07:38:37 51°11.008 2°44.727 252 15 249 8.3
2004-06-03 07:38:42 51°11.001 2°44.695 253.3 15.1 251 8.3
2004-06-03 07:38:44 51°10.999 2°44.682 256.9 15.1 254 8.3
2004-06-03 07:38:52 51°10.99 2°44.631 258.8 15.1 253 8.3
2004-06-03 07:38:57 51°10.984 2°44.599 259.7 15.2 254 8.4
2004-06-03 07:39:02 51°10.979 2°44.567 260.9 15.1 256 8.4
2004-06-03 07:39:06 51°10.974 2°44.541 259.9 15.3 254 8.4
2004-06-03 07:39:12 51°10.967 2°44.502 259.8 15.3 255 8.4
2004-06-03 07:39:17 51°10.96 2°44.47 259.4 15.2 252 8.4
2004-06-03 07:39:21 51°10.955 2°44.444 257.8 15.3 252 8.4
2004-06-03 07:39:28 51°10.946 2°44.4 257.1 15.3 251 8.4
2004-06-03 07:39:32 51°10.939 2°44.375 256.4 15.3 249 8.5
2004-06-03 07:39:37 51°10.932 2°44.343 254 15.3 251 8.5
2004-06-03 07:39:42 51°10.924 2°44.312 254.7 15.2 248 8.5
2004-06-03 07:39:45 51°10.92 2°44.293 252.7 15.2 249 8.5
2004-06-03 07:39:52 51°10.909 2°44.25 252.9 15.3 248 8.5
2004-06-03 07:39:57 51°10.901 2°44.218 252.2 15.3 248 8.5
2004-06-03 07:40:02 51°10.893 2°44.187 252.5 15.3 248 8.4
2004-06-03 07:40:07 51°10.886 2°44.155 252.4 15.3 249 8.4
2004-06-03 07:40:12 51°10.879 2°44.123 254.4 15.3 251 8.4
2004-06-03 07:40:17 51°10.873 2°44.091 255.7 15.2 253 8.5
2004-06-03 07:40:22 51°10.866 2°44.059 257.6 15.1 252 8.5
2004-06-03 07:40:27 51°10.86 2°44.027 257.6 15.2 254 8.5
2004-06-03 07:40:32 51°10.855 2°43.995 258.3 15.2 253 8.5
2004-06-03 07:40:36 51°10.85 2°43.969 259.5 15.2 253 8.5
2004-06-03 07:40:41 51°10.844 2°43.937 259.1 15.2 255 8.5
2004-06-03 07:40:47 51°10.836 2°43.898 258.8 15.3 252 8.5
2004-06-03 07:40:52 51°10.83 2°43.866 257.2 15.3 252 8.5
2004-06-03 07:40:57 51°10.822 2°43.835 256.7 15.2 250 8.5
2004-06-03 07:41:02 51°10.815 2°43.803 254.8 15.3 250 8.5
2004-06-03 07:41:05 51°10.81 2°43.784 254 15.3 249 8.5
2004-06-03 07:41:12 51°10.8 2°43.74 252.9 15.3 248 8.5
2004-06-03 07:41:17 51°10.791 2°43.709 253.4 15.3 247 8.5
2004-06-03 07:41:22 51°10.784 2°43.678 252.2 15.3 250 8.5
2004-06-03 07:41:26 51°10.777 2°43.653 252.6 15.3 249 8.5
2004-06-03 07:41:32 51°10.769 2°43.615 253.8 15.2 250 8.5
2004-06-03 07:41:37 51°10.762 2°43.583 254.3 15.2 250 8.5
2004-06-03 07:41:42 51°10.755 2°43.551 254.9 15.1 252 8.5
2004-06-03 07:41:47 51°10.749 2°43.519 256.5 15.2 253 8.6
2004-06-03 07:41:52 51°10.743 2°43.487 257.6 15.2 254 8.6
2004-06-03 07:41:57 51°10.738 2°43.454 259.4 15.2 256 8.6
2004-06-03 07:42:02 51°10.732 2°43.422 260.7 15 255 8.6
2004-06-03 07:42:07 51°10.727 2°43.391 260.2 14.9 254 8.7
2004-06-03 07:42:12 51°10.721 2°43.359 259.1 15 254 8.6
2004-06-03 07:42:17 51°10.715 2°43.327 258 15.1 253 8.6
2004-06-03 07:42:22 51°10.707 2°43.296 256.8 15.1 251 8.6
2004-06-03 07:42:25 51°10.704 2°43.277 256 15 250 8.6
2004-06-03 07:42:32 51°10.693 2°43.234 254.1 15 248 8.6
2004-06-03 07:42:37 51°10.685 2°43.203 252.8 15.1 248 8.5
2004-06-03 07:42:42 51°10.678 2°43.172 252.3 15.1 249 8.6
2004-06-03 07:42:47 51°10.67 2°43.141 253.2 15 249 8.5
2004-06-03 07:42:52 51°10.664 2°43.11 253.9 15 252 8.6
2004-06-03 07:42:57 51°10.657 2°43.078 254.6 15.1 251 8.6
2004-06-03 07:43:01 51°10.652 2°43.053 255.9 15.1 252 8.6
2004-06-03 07:43:05 51°10.646 2°43.028 256.2 15.1 252 8.6
2004-06-03 07:43:12 51°10.638 2°42.983 257.6 15 253 8.7
2004-06-03 07:43:17 51°10.632 2°42.952 258.4 15 253 8.6
2004-06-03 07:43:22 51°10.626 2°42.92 258.2 15.1 253 8.6
2004-06-03 07:43:26 51°10.621 2°42.894 257.6 15.1 254 8.5
2004-06-03 07:43:29 51°10.617 2°42.875 257.8 15.1 252 8.6
2004-06-03 07:43:37 51°10.606 2°42.825 256.9 15.2 251 8.6
2004-06-03 07:43:42 51°10.599 2°42.793 255.9 15.3 250 8.7
2004-06-03 07:43:45 51°10.595 2°42.774 255 15.2 249 8.7
2004-06-03 07:43:52 51°10.584 2°42.731 253.7 15.1 249 8.7
2004-06-03 07:43:57 51°10.576 2°42.7 252.9 15 248 8.6
2004-06-03 07:44:02 51°10.569 2°42.668 252.7 15.2 248 8.6
2004-06-03 07:44:06 51°10.563 2°42.643 252.5 15.3 249 8.6
2004-06-03 07:44:12 51°10.554 2°42.606 253.3 15.1 250 8.7
2004-06-03 07:44:17 51°10.546 2°42.575 253.7 15.1 249 8.7
2004-06-03 07:44:22 51°10.539 2°42.543 253.6 15.2 251 8.6
2004-06-03 07:44:28 51°10.531 2°42.505 255 15.2 251 8.6
2004-06-03 07:44:32 51°10.526 2°42.479 255.9 15.1 252 8.7
2004-06-03 07:44:37 51°10.52 2°42.447 256.9 15.1 253 8.7
2004-06-03 07:44:42 51°10.514 2°42.416 257.5 15.1 253 8.7
2004-06-03 07:44:46 51°10.509 2°42.39 258 15.1 254 8.7
2004-06-03 07:44:49 51°10.506 2°42.371 258.6 15.2 253 8.7
2004-06-03 07:44:57 51°10.496 2°42.319 257.9 15.2 254 8.7
2004-06-03 07:45:02 51°10.49 2°42.287 258.8 15.1 253 8.8
2004-06-03 07:45:07 51°10.483 2°42.255 257.8 15.2 252 8.8
2004-06-03 07:45:12 51°10.476 2°42.224 257.6 15.2 253 8.9
2004-06-03 07:45:16 51°10.47 2°42.199 255.3 15.2 250 8.8
2004-06-03 07:45:22 51°10.461 2°42.161 254.3 15.3 249 8.8
2004-06-03 07:45:27 51°10.454 2°42.129 254 15.3 249 8.9
2004-06-03 07:45:32 51°10.446 2°42.098 253.3 15.3 249 8.8
2004-06-03 07:45:37 51°10.439 2°42.066 253.3 15.3 250 8.8
2004-06-03 07:45:42 51°10.431 2°42.035 254 15.3 249 8.8
2004-06-03 07:45:45 51°10.427 2°42.015 254 15.4 250 8.8
2004-06-03 07:45:52 51°10.417 2°41.971 254.9 15.4 251 8.9
2004-06-03 07:45:57 51°10.41 2°41.939 254.8 15.3 250 8.9
2004-06-03 07:46:02 51°10.402 2°41.907 254 15.3 250 8.9
2004-06-03 07:46:07 51°10.394 2°41.876 253.9 15.4 249 8.9
2004-06-03 07:46:12 51°10.387 2°41.844 253.9 15.3 250 9
2004-06-03 07:46:17 51°10.379 2°41.813 252.7 15.4 249 9
2004-06-03 07:46:22 51°10.372 2°41.781 253.3 15.3 250 8.9
2004-06-03 07:46:25 51°10.368 2°41.762 254.1 15.2 249 9
2004-06-03 07:46:32 51°10.357 2°41.718 253.3 15.3 251 8.9
2004-06-03 07:46:37 51°10.35 2°41.686 254.6 15.2 250 9
2004-06-03 07:46:42 51°10.343 2°41.655 254.7 15.3 251 9
2004-06-03 07:46:47 51°10.338 2°41.622 256.9 15.2 253 8.9
2004-06-03 07:46:52 51°10.331 2°41.59 256.4 15.3 251 9
2004-06-03 07:46:57 51°10.324 2°41.559 256.9 15.2 251 9
2004-06-03 07:47:02 51°10.317 2°41.527 255.5 15.2 251 9
2004-06-03 07:47:07 51°10.31 2°41.495 255.6 15.2 251 9.1
2004-06-03 07:47:12 51°10.304 2°41.463 255.5 15.2 252 9.1
2004-06-03 07:47:17 51°10.297 2°41.432 255.7 15.2 251 9.1
2004-06-03 07:47:22 51°10.29 2°41.399 255.5 15.3 252 9.1
2004-06-03 07:47:26 51°10.284 2°41.374 256.2 15.4 251 9.1
2004-06-03 07:47:32 51°10.277 2°41.336 256.1 15.3 252 9.1
2004-06-03 07:47:37 51°10.27 2°41.304 255.8 15.2 250 9.1
2004-06-03 07:47:42 51°10.263 2°41.272 255.4 15.3 252 9.1
2004-06-03 07:47:47 51°10.256 2°41.24 255.7 15.2 251 9.2
2004-06-03 07:47:52 51°10.249 2°41.209 255.2 15.2 250 9.2
2004-06-03 07:47:57 51°10.242 2°41.177 253.8 15.3 249 9.2
2004-06-03 07:48:01 51°10.236 2°41.152 253.7 15.3 250 9.2
2004-06-03 07:48:04 51°10.231 2°41.133 254.4 15.2 249 9.2
2004-06-03 07:48:12 51°10.219 2°41.083 253.2 15.2 249 9.2
2004-06-03 07:48:17 51°10.212 2°41.052 253.3 15.2 249 9.2
2004-06-03 07:48:22 51°10.205 2°41.021 254 15.2 250 9.3
2004-06-03 07:48:26 51°10.199 2°40.995 253.2 15.2 250 9.3
2004-06-03 07:48:29 51°10.195 2°40.977 253.9 15.2 251 9.4
2004-06-03 07:48:37 51°10.184 2°40.926 254.7 15.2 251 9.3
2004-06-03 07:48:42 51°10.177 2°40.894 255.3 15.2 251 9.4
2004-06-03 07:48:45 51°10.173 2°40.875 255.6 15.3 251 9.3
2004-06-03 07:48:52 51°10.164 2°40.83 256 15.3 253 9.3
2004-06-03 07:48:57 51°10.157 2°40.798 257.3 15.1 252 9.3
2004-06-03 07:49:02 51°10.151 2°40.767 256.2 15.1 251 9.4
2004-06-03 07:49:07 51°10.144 2°40.735 255.7 15.2 251 9.4
2004-06-03 07:49:12 51°10.136 2°40.704 255.2 15.1 251 9.4
2004-06-03 07:49:17 51°10.129 2°40.673 254 15.1 249 9.4
2004-06-03 07:49:22 51°10.122 2°40.641 253.1 15.2 249 9.5
2004-06-03 07:49:25 51°10.117 2°40.622 253.4 15.2 250 9.5
2004-06-03 07:49:32 51°10.108 2°40.578 254.7 15.1 251 9.4
2004-06-03 07:49:37 51°10.102 2°40.546 255.4 15.1 253 9.4
2004-06-03 07:49:42 51°10.095 2°40.515 256.6 15.1 252 9.5
2004-06-03 07:49:45 51°10.092 2°40.496 257.3 15.1 252 9.6
2004-06-03 07:49:52 51°10.083 2°40.451 257.5 15.2 253 9.6
2004-06-03 07:49:56 51°10.077 2°40.426 256.1 15.2 252 9.6
2004-06-03 07:50:02 51°10.069 2°40.388 256 15.1 251 9.6
2004-06-03 07:50:07 51°10.063 2°40.356 255.7 15.1 251 9.6
2004-06-03 07:50:12 51°10.055 2°40.325 255 15.1 249 9.6
2004-06-03 07:50:17 51°10.048 2°40.294 254 15.1 250 9.6
2004-06-03 07:50:22 51°10.041 2°40.262 253.7 15.2 250 9.6
2004-06-03 07:50:27 51°10.033 2°40.231 254 15.1 249 9.5
2004-06-03 07:50:32 51°10.027 2°40.2 254 15.2 251 9.6
2004-06-03 07:50:37 51°10.02 2°40.168 254.2 15.2 251 9.6
2004-06-03 07:50:42 51°10.013 2°40.137 255.3 15.1 251 9.7
2004-06-03 07:50:47 51°10.006 2°40.105 255.7 15.1 252 9.6
2004-06-03 07:50:52 51°9.999 2°40.073 255.1 15.2 253 9.7
2004-06-03 07:50:56 51°9.994 2°40.048 256.1 15.2 251 9.7
2004-06-03 07:51:02 51°9.986 2°40.01 254.9 15.1 251 9.7
2004-06-03 07:51:07 51°9.979 2°39.979 255.3 15 251 9.7
2004-06-03 07:51:12 51°9.972 2°39.948 254.8 15.1 250 9.7
2004-06-03 07:51:16 51°9.967 2°39.922 254.9 15 251 9.7
2004-06-03 07:51:22 51°9.958 2°39.885 254.2 15.1 249 9.7
2004-06-03 07:51:28 51°9.95 2°39.847 254.3 15.1 252 9.7
2004-06-03 07:51:32 51°9.944 2°39.822 254 15.1 251 9.7
2004-06-03 07:51:37 51°9.937 2°39.791 254 15.1 249 9.7
2004-06-03 07:51:42 51°9.93 2°39.759 253.6 15.1 250 9.7
2004-06-03 07:51:47 51°9.922 2°39.728 254.2 15 251 9.7
2004-06-03 07:51:52 51°9.915 2°39.697 254.3 15.1 251 9.7
2004-06-03 07:51:57 51°9.909 2°39.665 254.7 15.1 251 9.7
2004-06-03 07:52:02 51°9.902 2°39.634 254.7 15.1 251 9.7
2004-06-03 07:52:06 51°9.897 2°39.609 254.8 15.1 251 9.7
2004-06-03 07:52:12 51°9.889 2°39.571 255.1 15.1 250 9.7
2004-06-03 07:52:16 51°9.883 2°39.546 255.4 15.1 251 9.7
2004-06-03 07:52:22 51°9.875 2°39.508 255.4 15.1 251 9.7
2004-06-03 07:52:27 51°9.868 2°39.477 255.2 15.1 251 9.7
2004-06-03 07:52:32 51°9.862 2°39.445 255.1 15.2 251 9.8
2004-06-03 07:52:37 51°9.855 2°39.413 255 15.2 252 9.8
2004-06-03 07:52:42 51°9.848 2°39.381 255.7 15.1 251 9.9
2004-06-03 07:52:45 51°9.844 2°39.362 255.2 15.3 251 9.9
2004-06-03 07:52:52 51°9.835 2°39.318 255.4 15.3 252 9.9
2004-06-03 07:52:57 51°9.828 2°39.286 255.8 15.2 251 9.9
2004-06-03 07:53:02 51°9.823 2°39.254 255.6 15.2 254 9.9
2004-06-03 07:53:06 51°9.819 2°39.227 259.1 15.1 258 10
2004-06-03 07:53:12 51°9.816 2°39.188 262.5 15.1 263 10
2004-06-03 07:53:17 51°9.814 2°39.155 267.2 15.1 265 10
2004-06-03 07:53:22 51°9.813 2°39.122 270.5 15.1 267 10.2
2004-06-03 07:53:27 51°9.813 2°39.088 274 15 270 10.3
2004-06-03 07:53:32 51°9.815 2°39.056 278.1 15 273 10.3
2004-06-03 07:53:36 51°9.817 2°39.029 281.6 14.9 277 10.4
2004-06-03 07:53:42 51°9.821 2°38.991 284.3 14.9 279 10.5
2004-06-03 07:53:47 51°9.824 2°38.958 286.5 15 279 10.7
2004-06-03 07:53:52 51°9.827 2°38.925 286.8 15 279 10.9